sensor_id;sensor_type;location;lat;lon;timestamp;pressure;altitude;pressure_sealevel;temperature;humidity
36514;BME280;66331;46.796;9.824;2023-02-03T00:00:30;85467.29;;;-5.04;47.49
36514;BME280;66331;46.796;9.824;2023-02-03T00:02:57;85460.90;;;-4.61;47.09
36514;BME280;66331;46.796;9.824;2023-02-03T00:05:25;85466.15;;;-4.94;48.45
36514;BME280;66331;46.796;9.824;2023-02-03T00:07:52;85464.47;;;-5.15;49.41
36514;BME280;66331;46.796;9.824;2023-02-03T00:10:19;85462.46;;;-5.24;49.00
36514;BME280;66331;46.796;9.824;2023-02-03T00:12:47;85457.63;;;-5.19;48.46
36514;BME280;66331;46.796;9.824;2023-02-03T00:15:14;85456.81;;;-4.44;47.23
36514;BME280;66331;46.796;9.824;2023-02-03T00:17:41;85454.34;;;-5.45;49.60
36514;BME280;66331;46.796;9.824;2023-02-03T00:20:10;85450.78;;;-5.34;50.53
36514;BME280;66331;46.796;9.824;2023-02-03T00:22:37;85452.51;;;-4.68;49.44
36514;BME280;66331;46.796;9.824;2023-02-03T00:25:05;85458.62;;;-4.77;49.57
36514;BME280;66331;46.796;9.824;2023-02-03T00:27:33;85460.92;;;-5.20;49.56
36514;BME280;66331;46.796;9.824;2023-02-03T00:30:00;85461.89;;;-5.42;50.21
36514;BME280;66331;46.796;9.824;2023-02-03T00:32:28;85457.92;;;-5.40;48.95
36514;BME280;66331;46.796;9.824;2023-02-03T00:34:55;85463.85;;;-5.19;48.45
36514;BME280;66331;46.796;9.824;2023-02-03T00:37:22;85467.39;;;-5.80;49.92
36514;BME280;66331;46.796;9.824;2023-02-03T00:39:50;85464.24;;;-7.21;51.68
36514;BME280;66331;46.796;9.824;2023-02-03T00:42:17;85461.92;;;-6.56;50.69
36514;BME280;66331;46.796;9.824;2023-02-03T00:44:44;85457.98;;;-5.94;49.49
36514;BME280;66331;46.796;9.824;2023-02-03T00:47:11;85458.01;;;-5.05;48.25
36514;BME280;66331;46.796;9.824;2023-02-03T00:49:38;85463.56;;;-5.33;47.24
36514;BME280;66331;46.796;9.824;2023-02-03T00:52:05;85461.81;;;-6.85;49.60
36514;BME280;66331;46.796;9.824;2023-02-03T00:54:33;85467.42;;;-6.04;48.12
36514;BME280;66331;46.796;9.824;2023-02-03T00:57:00;85462.68;;;-5.52;47.09
36514;BME280;66331;46.796;9.824;2023-02-03T00:59:28;85465.39;;;-5.19;46.77
36514;BME280;66331;46.796;9.824;2023-02-03T01:01:55;85466.95;;;-5.43;48.08
36514;BME280;66331;46.796;9.824;2023-02-03T01:04:22;85468.95;;;-4.78;46.76
36514;BME280;66331;46.796;9.824;2023-02-03T01:06:50;85470.89;;;-6.31;48.84
36514;BME280;66331;46.796;9.824;2023-02-03T01:09:18;85474.31;;;-6.24;48.21
36514;BME280;66331;46.796;9.824;2023-02-03T01:11:46;85479.98;;;-6.50;48.96
36514;BME280;66331;46.796;9.824;2023-02-03T01:14:14;85482.85;;;-5.86;47.88
36514;BME280;66331;46.796;9.824;2023-02-03T01:16:48;85479.12;;;-5.39;47.43
36514;BME280;66331;46.796;9.824;2023-02-03T01:19:16;85479.93;;;-5.94;49.82
36514;BME280;66331;46.796;9.824;2023-02-03T01:21:43;85482.34;;;-5.90;50.42
36514;BME280;66331;46.796;9.824;2023-02-03T01:24:10;85471.99;;;-5.75;50.94
36514;BME280;66331;46.796;9.824;2023-02-03T01:26:38;85476.14;;;-6.14;51.12
36514;BME280;66331;46.796;9.824;2023-02-03T01:29:06;85490.54;;;-6.35;52.03
36514;BME280;66331;46.796;9.824;2023-02-03T01:31:40;85480.89;;;-5.90;51.65
36514;BME280;66331;46.796;9.824;2023-02-03T01:34:11;85489.72;;;-5.31;50.93
36514;BME280;66331;46.796;9.824;2023-02-03T01:36:40;85484.21;;;-6.03;50.67
36514;BME280;66331;46.796;9.824;2023-02-03T01:39:08;85485.66;;;-5.47;50.18
36514;BME280;66331;46.796;9.824;2023-02-03T01:41:37;85485.66;;;-5.69;50.37
36514;BME280;66331;46.796;9.824;2023-02-03T01:44:38;85486.70;;;-5.74;51.18
36514;BME280;66331;46.796;9.824;2023-02-03T01:47:11;85488.69;;;-6.18;52.87
36514;BME280;66331;46.796;9.824;2023-02-03T01:49:43;85486.31;;;-7.27;53.62
36514;BME280;66331;46.796;9.824;2023-02-03T01:52:16;85492.04;;;-5.84;50.36
36514;BME280;66331;46.796;9.824;2023-02-03T01:54:47;85498.07;;;-6.67;52.20
36514;BME280;66331;46.796;9.824;2023-02-03T01:57:20;85495.68;;;-6.02;51.39
36514;BME280;66331;46.796;9.824;2023-02-03T01:59:50;85495.47;;;-6.50;52.69
36514;BME280;66331;46.796;9.824;2023-02-03T02:02:21;85497.37;;;-6.07;52.06
36514;BME280;66331;46.796;9.824;2023-02-03T02:04:55;85498.56;;;-6.18;52.86
36514;BME280;66331;46.796;9.824;2023-02-03T02:07:27;85499.06;;;-6.84;54.08
36514;BME280;66331;46.796;9.824;2023-02-03T02:09:56;85494.20;;;-5.36;50.92
36514;BME280;66331;46.796;9.824;2023-02-03T02:12:24;85497.02;;;-5.18;50.26
36514;BME280;66331;46.796;9.824;2023-02-03T02:14:52;85492.27;;;-5.42;51.04
36514;BME280;66331;46.796;9.824;2023-02-03T02:17:37;85489.11;;;-4.87;49.53
36514;BME280;66331;46.796;9.824;2023-02-03T02:20:29;85492.35;;;-4.64;49.04
36514;BME280;66331;46.796;9.824;2023-02-03T02:23:21;85494.76;;;-4.90;49.32
36514;BME280;66331;46.796;9.824;2023-02-03T02:26:10;85503.85;;;-4.21;48.53
36514;BME280;66331;46.796;9.824;2023-02-03T02:29:02;85500.98;;;-6.02;51.32
36514;BME280;66331;46.796;9.824;2023-02-03T02:31:46;85511.71;;;-6.23;52.12
36514;BME280;66331;46.796;9.824;2023-02-03T02:34:23;85518.48;;;-5.34;50.02
36514;BME280;66331;46.796;9.824;2023-02-03T02:37:02;85521.00;;;-5.10;49.39
36514;BME280;66331;46.796;9.824;2023-02-03T02:39:38;85524.50;;;-5.18;49.97
36514;BME280;66331;46.796;9.824;2023-02-03T02:42:16;85528.96;;;-5.40;49.80
36514;BME280;66331;46.796;9.824;2023-02-03T02:44:52;85528.54;;;-5.09;49.87
36514;BME280;66331;46.796;9.824;2023-02-03T02:47:23;85532.71;;;-4.21;47.62
36514;BME280;66331;46.796;9.824;2023-02-03T02:49:55;85529.53;;;-4.27;46.86
36514;BME280;66331;46.796;9.824;2023-02-03T02:52:25;85529.72;;;-4.88;48.65
36514;BME280;66331;46.796;9.824;2023-02-03T02:54:57;85532.46;;;-4.62;48.96
36514;BME280;66331;46.796;9.824;2023-02-03T02:57:35;85529.20;;;-4.23;48.40
36514;BME280;66331;46.796;9.824;2023-02-03T03:00:05;85536.41;;;-4.63;48.69
36514;BME280;66331;46.796;9.824;2023-02-03T03:02:35;85538.27;;;-4.45;48.28
36514;BME280;66331;46.796;9.824;2023-02-03T03:05:04;85539.08;;;-3.62;46.59
36514;BME280;66331;46.796;9.824;2023-02-03T03:07:37;85542.27;;;-4.56;48.06
36514;BME280;66331;46.796;9.824;2023-02-03T03:10:08;85555.02;;;-5.41;49.80
36514;BME280;66331;46.796;9.824;2023-02-03T03:12:43;85558.00;;;-4.67;49.11
36514;BME280;66331;46.796;9.824;2023-02-03T03:15:14;85564.33;;;-5.48;50.70
36514;BME280;66331;46.796;9.824;2023-02-03T03:17:49;85556.64;;;-4.65;48.20
36514;BME280;66331;46.796;9.824;2023-02-03T03:20:24;85550.07;;;-3.41;47.32
36514;BME280;66331;46.796;9.824;2023-02-03T03:22:56;85544.84;;;-3.56;46.75
36514;BME280;66331;46.796;9.824;2023-02-03T03:25:29;85543.17;;;-4.21;48.35
36514;BME280;66331;46.796;9.824;2023-02-03T03:28:01;85547.17;;;-4.85;49.59
36514;BME280;66331;46.796;9.824;2023-02-03T03:30:34;85547.22;;;-4.12;49.04
36514;BME280;66331;46.796;9.824;2023-02-03T03:33:02;85547.43;;;-5.00;50.06
36514;BME280;66331;46.796;9.824;2023-02-03T03:35:38;85549.14;;;-3.88;48.03
36514;BME280;66331;46.796;9.824;2023-02-03T03:38:12;85546.14;;;-3.53;47.55
36514;BME280;66331;46.796;9.824;2023-02-03T03:40:42;85550.71;;;-4.20;48.24
36514;BME280;66331;46.796;9.824;2023-02-03T03:43:14;85549.95;;;-5.08;50.74
36514;BME280;66331;46.796;9.824;2023-02-03T03:45:46;85540.90;;;-4.59;48.59
36514;BME280;66331;46.796;9.824;2023-02-03T03:48:18;85537.91;;;-4.84;50.17
36514;BME280;66331;46.796;9.824;2023-02-03T03:50:51;85545.97;;;-4.88;49.92
36514;BME280;66331;46.796;9.824;2023-02-03T03:53:22;85548.05;;;-4.10;48.22
36514;BME280;66331;46.796;9.824;2023-02-03T03:55:52;85543.00;;;-4.38;48.38
36514;BME280;66331;46.796;9.824;2023-02-03T03:58:23;85543.94;;;-3.83;46.98
36514;BME280;66331;46.796;9.824;2023-02-03T04:00:52;85546.16;;;-4.32;48.85
36514;BME280;66331;46.796;9.824;2023-02-03T04:03:23;85552.70;;;-4.71;49.76
36514;BME280;66331;46.796;9.824;2023-02-03T04:05:51;85560.27;;;-5.22;50.21
36514;BME280;66331;46.796;9.824;2023-02-03T04:08:19;85556.19;;;-4.95;50.74
36514;BME280;66331;46.796;9.824;2023-02-03T04:10:46;85550.81;;;-4.30;47.83
36514;BME280;66331;46.796;9.824;2023-02-03T04:13:13;85540.64;;;-4.51;47.74
36514;BME280;66331;46.796;9.824;2023-02-03T04:15:40;85527.84;;;-4.38;46.97
36514;BME280;66331;46.796;9.824;2023-02-03T04:18:10;85514.63;;;-4.69;47.55
36514;BME280;66331;46.796;9.824;2023-02-03T04:20:37;85510.87;;;-5.21;47.92
36514;BME280;66331;46.796;9.824;2023-02-03T04:23:05;85518.84;;;-4.80;48.16
36514;BME280;66331;46.796;9.824;2023-02-03T04:25:32;85532.54;;;-4.67;48.26
36514;BME280;66331;46.796;9.824;2023-02-03T04:27:59;85541.40;;;-4.91;48.22
36514;BME280;66331;46.796;9.824;2023-02-03T04:30:26;85546.38;;;-5.30;49.32
36514;BME280;66331;46.796;9.824;2023-02-03T04:32:53;85541.94;;;-5.04;49.13
36514;BME280;66331;46.796;9.824;2023-02-03T04:35:20;85548.73;;;-5.30;49.58
36514;BME280;66331;46.796;9.824;2023-02-03T04:37:47;85567.06;;;-5.10;49.02
36514;BME280;66331;46.796;9.824;2023-02-03T04:40:15;85567.80;;;-5.33;49.15
36514;BME280;66331;46.796;9.824;2023-02-03T04:42:41;85570.88;;;-5.03;48.80
36514;BME280;66331;46.796;9.824;2023-02-03T04:45:10;85568.49;;;-4.84;47.67
36514;BME280;66331;46.796;9.824;2023-02-03T04:47:38;85564.29;;;-4.90;47.43
36514;BME280;66331;46.796;9.824;2023-02-03T04:50:05;85557.72;;;-4.95;47.65
36514;BME280;66331;46.796;9.824;2023-02-03T04:52:33;85553.60;;;-5.21;47.29
36514;BME280;66331;46.796;9.824;2023-02-03T04:55:00;85542.70;;;-4.48;45.54
36514;BME280;66331;46.796;9.824;2023-02-03T04:57:27;85540.25;;;-4.67;45.08
36514;BME280;66331;46.796;9.824;2023-02-03T04:59:54;85543.37;;;-6.63;49.38
36514;BME280;66331;46.796;9.824;2023-02-03T05:02:21;85546.44;;;-6.65;51.26
36514;BME280;66331;46.796;9.824;2023-02-03T05:04:48;85541.47;;;-5.97;48.82
36514;BME280;66331;46.796;9.824;2023-02-03T05:07:15;85527.09;;;-5.25;48.18
36514;BME280;66331;46.796;9.824;2023-02-03T05:09:42;85522.28;;;-5.21;47.79
36514;BME280;66331;46.796;9.824;2023-02-03T05:12:09;85510.77;;;-5.70;49.59
36514;BME280;66331;46.796;9.824;2023-02-03T05:14:36;85512.33;;;-5.59;49.24
36514;BME280;66331;46.796;9.824;2023-02-03T05:17:04;85513.04;;;-5.21;48.41
36514;BME280;66331;46.796;9.824;2023-02-03T05:19:31;85522.50;;;-5.64;48.51
36514;BME280;66331;46.796;9.824;2023-02-03T05:21:58;85505.35;;;-5.64;48.04
36514;BME280;66331;46.796;9.824;2023-02-03T05:24:25;85505.53;;;-5.82;47.84
36514;BME280;66331;46.796;9.824;2023-02-03T05:26:52;85509.13;;;-6.23;47.89
36514;BME280;66331;46.796;9.824;2023-02-03T05:29:19;85500.40;;;-6.24;47.92
36514;BME280;66331;46.796;9.824;2023-02-03T05:31:47;85499.61;;;-5.99;47.15
36514;BME280;66331;46.796;9.824;2023-02-03T05:34:14;85500.73;;;-6.31;48.07
36514;BME280;66331;46.796;9.824;2023-02-03T05:36:41;85496.50;;;-5.94;47.20
36514;BME280;66331;46.796;9.824;2023-02-03T05:39:08;85498.08;;;-5.54;47.05
36514;BME280;66331;46.796;9.824;2023-02-03T05:41:35;85507.58;;;-5.27;46.67
36514;BME280;66331;46.796;9.824;2023-02-03T05:44:03;85515.41;;;-5.45;47.84
36514;BME280;66331;46.796;9.824;2023-02-03T05:46:30;85517.41;;;-5.78;47.95
36514;BME280;66331;46.796;9.824;2023-02-03T05:48:57;85514.32;;;-5.33;46.84
36514;BME280;66331;46.796;9.824;2023-02-03T05:51:24;85522.10;;;-6.66;49.46
36514;BME280;66331;46.796;9.824;2023-02-03T05:53:51;85512.59;;;-5.31;47.39
36514;BME280;66331;46.796;9.824;2023-02-03T05:56:18;85522.20;;;-5.80;47.61
36514;BME280;66331;46.796;9.824;2023-02-03T05:58:45;85525.80;;;-7.07;49.34
36514;BME280;66331;46.796;9.824;2023-02-03T06:01:12;85548.46;;;-6.93;48.10
36514;BME280;66331;46.796;9.824;2023-02-03T06:03:40;85546.52;;;-6.75;47.69
36514;BME280;66331;46.796;9.824;2023-02-03T06:06:07;85542.82;;;-6.10;47.06
36514;BME280;66331;46.796;9.824;2023-02-03T06:08:34;85533.91;;;-7.24;49.88
36514;BME280;66331;46.796;9.824;2023-02-03T06:11:01;85558.94;;;-6.60;48.39
36514;BME280;66331;46.796;9.824;2023-02-03T06:13:28;85559.72;;;-5.54;47.09
36514;BME280;66331;46.796;9.824;2023-02-03T06:15:56;85555.99;;;-6.16;46.97
36514;BME280;66331;46.796;9.824;2023-02-03T06:18:23;85568.22;;;-6.18;46.89
36514;BME280;66331;46.796;9.824;2023-02-03T06:20:50;85566.30;;;-6.28;47.56
36514;BME280;66331;46.796;9.824;2023-02-03T06:23:17;85572.30;;;-6.83;47.51
36514;BME280;66331;46.796;9.824;2023-02-03T06:25:46;85579.05;;;-6.41;46.71
36514;BME280;66331;46.796;9.824;2023-02-03T06:28:14;85583.43;;;-6.43;46.02
36514;BME280;66331;46.796;9.824;2023-02-03T06:30:41;85571.44;;;-6.38;45.82
36514;BME280;66331;46.796;9.824;2023-02-03T06:33:08;85571.56;;;-6.16;45.40
36514;BME280;66331;46.796;9.824;2023-02-03T06:35:35;85578.30;;;-7.08;45.67
36514;BME280;66331;46.796;9.824;2023-02-03T06:38:02;85588.00;;;-6.02;44.64
36514;BME280;66331;46.796;9.824;2023-02-03T06:40:30;85583.90;;;-7.62;46.41
36514;BME280;66331;46.796;9.824;2023-02-03T06:42:57;85585.07;;;-6.76;45.92
36514;BME280;66331;46.796;9.824;2023-02-03T06:45:25;85576.47;;;-6.60;45.96
36514;BME280;66331;46.796;9.824;2023-02-03T06:47:52;85572.15;;;-6.36;45.24
36514;BME280;66331;46.796;9.824;2023-02-03T06:50:19;85577.19;;;-6.35;45.87
36514;BME280;66331;46.796;9.824;2023-02-03T06:52:48;85575.00;;;-6.30;45.43
36514;BME280;66331;46.796;9.824;2023-02-03T06:55:16;85566.22;;;-7.04;45.84
36514;BME280;66331;46.796;9.824;2023-02-03T06:57:44;85566.82;;;-7.21;46.27
36514;BME280;66331;46.796;9.824;2023-02-03T07:00:16;85560.59;;;-6.60;45.36
36514;BME280;66331;46.796;9.824;2023-02-03T07:02:53;85555.77;;;-5.66;43.75
36514;BME280;66331;46.796;9.824;2023-02-03T07:05:22;85553.73;;;-5.72;44.27
36514;BME280;66331;46.796;9.824;2023-02-03T07:07:49;85553.43;;;-6.78;45.85
36514;BME280;66331;46.796;9.824;2023-02-03T07:10:16;85561.58;;;-7.03;46.37
36514;BME280;66331;46.796;9.824;2023-02-03T07:12:43;85556.39;;;-7.32;46.33
36514;BME280;66331;46.796;9.824;2023-02-03T07:15:10;85554.61;;;-6.47;44.96
36514;BME280;66331;46.796;9.824;2023-02-03T07:17:38;85553.60;;;-7.42;45.69
36514;BME280;66331;46.796;9.824;2023-02-03T07:20:05;85547.12;;;-6.78;45.35
36514;BME280;66331;46.796;9.824;2023-02-03T07:22:44;85547.67;;;-6.33;44.62
36514;BME280;66331;46.796;9.824;2023-02-03T07:25:10;85544.59;;;-6.40;45.16
36514;BME280;66331;46.796;9.824;2023-02-03T07:27:38;85549.40;;;-7.21;45.36
36514;BME280;66331;46.796;9.824;2023-02-03T07:30:06;85560.25;;;-7.60;46.16
36514;BME280;66331;46.796;9.824;2023-02-03T07:32:34;85559.06;;;-6.81;44.72
36514;BME280;66331;46.796;9.824;2023-02-03T07:35:01;85558.48;;;-6.78;44.09
36514;BME280;66331;46.796;9.824;2023-02-03T07:37:28;85555.35;;;-6.73;44.31
36514;BME280;66331;46.796;9.824;2023-02-03T07:39:55;85558.79;;;-6.31;44.02
36514;BME280;66331;46.796;9.824;2023-02-03T07:42:23;85563.90;;;-6.12;44.26
36514;BME280;66331;46.796;9.824;2023-02-03T07:44:50;85569.68;;;-7.83;46.17
36514;BME280;66331;46.796;9.824;2023-02-03T07:47:17;85567.44;;;-6.89;44.30
36514;BME280;66331;46.796;9.824;2023-02-03T07:49:44;85554.50;;;-7.58;45.64
36514;BME280;66331;46.796;9.824;2023-02-03T07:52:11;85564.59;;;-7.18;44.86
36514;BME280;66331;46.796;9.824;2023-02-03T07:54:39;85563.94;;;-7.16;44.90
36514;BME280;66331;46.796;9.824;2023-02-03T07:57:06;85567.97;;;-7.21;44.86
36514;BME280;66331;46.796;9.824;2023-02-03T07:59:34;85571.17;;;-7.63;45.46
36514;BME280;66331;46.796;9.824;2023-02-03T08:02:01;85581.50;;;-7.16;44.60
36514;BME280;66331;46.796;9.824;2023-02-03T08:04:29;85581.50;;;-6.86;43.87
36514;BME280;66331;46.796;9.824;2023-02-03T08:06:56;85590.25;;;-7.51;44.72
36514;BME280;66331;46.796;9.824;2023-02-03T08:09:23;85587.58;;;-7.38;44.94
36514;BME280;66331;46.796;9.824;2023-02-03T08:11:50;85582.25;;;-7.18;43.88
36514;BME280;66331;46.796;9.824;2023-02-03T08:14:17;85582.26;;;-7.12;44.66
36514;BME280;66331;46.796;9.824;2023-02-03T08:16:44;85578.30;;;-6.60;43.70
36514;BME280;66331;46.796;9.824;2023-02-03T08:19:12;85592.49;;;-7.05;44.42
36514;BME280;66331;46.796;9.824;2023-02-03T08:21:39;85587.24;;;-7.45;44.97
36514;BME280;66331;46.796;9.824;2023-02-03T08:24:06;85594.80;;;-7.22;44.61
36514;BME280;66331;46.796;9.824;2023-02-03T08:26:35;85603.76;;;-6.17;43.38
36514;BME280;66331;46.796;9.824;2023-02-03T08:29:03;85603.11;;;-7.00;45.81
36514;BME280;66331;46.796;9.824;2023-02-03T08:31:32;85593.96;;;-6.89;46.52
36514;BME280;66331;46.796;9.824;2023-02-03T08:33:59;85598.04;;;-6.57;45.51
36514;BME280;66331;46.796;9.824;2023-02-03T08:36:32;85604.30;;;-5.77;43.64
36514;BME280;66331;46.796;9.824;2023-02-03T08:38:59;85610.20;;;-5.42;43.00
36514;BME280;66331;46.796;9.824;2023-02-03T08:41:26;85613.89;;;-6.38;43.41
36514;BME280;66331;46.796;9.824;2023-02-03T08:44:03;85605.96;;;-6.36;43.57
36514;BME280;66331;46.796;9.824;2023-02-03T08:46:30;85606.74;;;-5.69;42.86
36514;BME280;66331;46.796;9.824;2023-02-03T08:48:57;85605.01;;;-5.97;43.59
36514;BME280;66331;46.796;9.824;2023-02-03T08:51:25;85600.84;;;-5.99;43.40
36514;BME280;66331;46.796;9.824;2023-02-03T08:53:52;85603.25;;;-6.03;43.27
36514;BME280;66331;46.796;9.824;2023-02-03T08:56:19;85604.09;;;-5.89;43.05
36514;BME280;66331;46.796;9.824;2023-02-03T08:58:46;85608.31;;;-6.43;45.12
36514;BME280;66331;46.796;9.824;2023-02-03T09:01:14;85606.84;;;-6.91;45.41
36514;BME280;66331;46.796;9.824;2023-02-03T09:03:41;85603.58;;;-5.75;43.25
36514;BME280;66331;46.796;9.824;2023-02-03T09:06:09;85599.82;;;-5.61;42.98
36514;BME280;66331;46.796;9.824;2023-02-03T09:08:36;85609.00;;;-4.96;42.80
36514;BME280;66331;46.796;9.824;2023-02-03T09:11:07;85606.90;;;-4.83;42.20
36514;BME280;66331;46.796;9.824;2023-02-03T09:13:35;85610.92;;;-5.43;42.94
36514;BME280;66331;46.796;9.824;2023-02-03T09:16:03;85599.77;;;-4.60;41.38
36514;BME280;66331;46.796;9.824;2023-02-03T09:18:31;85586.81;;;-4.67;41.96
36514;BME280;66331;46.796;9.824;2023-02-03T09:21:01;85589.48;;;-4.99;42.42
36514;BME280;66331;46.796;9.824;2023-02-03T09:23:28;85586.77;;;-4.05;41.57
36514;BME280;66331;46.796;9.824;2023-02-03T09:26:00;85584.88;;;-4.38;42.16
36514;BME280;66331;46.796;9.824;2023-02-03T09:28:35;85595.70;;;-4.91;42.30
36514;BME280;66331;46.796;9.824;2023-02-03T09:31:04;85587.14;;;-4.95;42.51
36514;BME280;66331;46.796;9.824;2023-02-03T09:33:39;85587.69;;;-4.51;42.48
36514;BME280;66331;46.796;9.824;2023-02-03T09:36:09;85596.18;;;-4.30;42.27
36514;BME280;66331;46.796;9.824;2023-02-03T09:39:16;85588.37;;;-3.39;41.56
36514;BME280;66331;46.796;9.824;2023-02-03T09:42:04;85590.12;;;-3.38;40.99
36514;BME280;66331;46.796;9.824;2023-02-03T09:44:37;85593.24;;;-4.09;41.71
36514;BME280;66331;46.796;9.824;2023-02-03T09:47:11;85587.94;;;-3.51;41.31
36514;BME280;66331;46.796;9.824;2023-02-03T09:49:41;85588.76;;;-3.64;41.92
36514;BME280;66331;46.796;9.824;2023-02-03T09:52:14;85586.97;;;-3.90;42.26
36514;BME280;66331;46.796;9.824;2023-02-03T09:54:46;85581.01;;;-3.73;42.07
36514;BME280;66331;46.796;9.824;2023-02-03T09:57:20;85587.53;;;-3.38;42.06
36514;BME280;66331;46.796;9.824;2023-02-03T09:59:59;85585.58;;;-3.65;43.88
36514;BME280;66331;46.796;9.824;2023-02-03T10:02:36;85569.48;;;-2.91;42.81
36514;BME280;66331;46.796;9.824;2023-02-03T10:05:17;85580.54;;;-3.37;42.55
36514;BME280;66331;46.796;9.824;2023-02-03T10:07:55;85580.60;;;-3.37;42.87
36514;BME280;66331;46.796;9.824;2023-02-03T10:10:34;85585.24;;;-3.43;43.43
36514;BME280;66331;46.796;9.824;2023-02-03T10:13:12;85582.26;;;-3.89;43.96
36514;BME280;66331;46.796;9.824;2023-02-03T10:16:10;85577.64;;;-3.30;44.11
36514;BME280;66331;46.796;9.824;2023-02-03T10:18:44;85573.70;;;-3.28;43.79
36514;BME280;66331;46.796;9.824;2023-02-03T10:21:17;85574.46;;;-4.22;47.45
36514;BME280;66331;46.796;9.824;2023-02-03T10:23:47;85568.41;;;-4.10;46.91
36514;BME280;66331;46.796;9.824;2023-02-03T10:26:19;85556.76;;;-3.08;44.33
36514;BME280;66331;46.796;9.824;2023-02-03T10:28:53;85563.46;;;-2.53;42.73
36514;BME280;66331;46.796;9.824;2023-02-03T10:31:22;85550.43;;;-2.82;43.06
36514;BME280;66331;46.796;9.824;2023-02-03T10:33:58;85547.11;;;-2.46;44.02
36514;BME280;66331;46.796;9.824;2023-02-03T10:36:36;85547.74;;;-3.21;46.24
36514;BME280;66331;46.796;9.824;2023-02-03T10:39:14;85542.87;;;-2.61;46.00
36514;BME280;66331;46.796;9.824;2023-02-03T10:41:43;85541.52;;;-2.13;43.64
36514;BME280;66331;46.796;9.824;2023-02-03T10:44:12;85544.60;;;-2.12;43.92
36514;BME280;66331;46.796;9.824;2023-02-03T10:46:45;85541.17;;;-2.79;47.57
36514;BME280;66331;46.796;9.824;2023-02-03T10:49:13;85534.08;;;-1.75;44.78
36514;BME280;66331;46.796;9.824;2023-02-03T10:51:56;85528.64;;;-2.36;43.73
36514;BME280;66331;46.796;9.824;2023-02-03T10:54:30;85522.14;;;-2.02;43.81
36514;BME280;66331;46.796;9.824;2023-02-03T10:57:02;85522.81;;;-1.47;43.06
36514;BME280;66331;46.796;9.824;2023-02-03T10:59:33;85528.90;;;-2.28;44.19
36514;BME280;66331;46.796;9.824;2023-02-03T11:02:07;85526.31;;;-1.40;43.37
36514;BME280;66331;46.796;9.824;2023-02-03T11:04:35;85519.96;;;-1.12;42.43
36514;BME280;66331;46.796;9.824;2023-02-03T11:07:04;85515.84;;;-1.67;43.29
36514;BME280;66331;46.796;9.824;2023-02-03T11:09:34;85510.50;;;-1.29;43.17
36514;BME280;66331;46.796;9.824;2023-02-03T11:12:06;85502.79;;;-0.87;42.49
36514;BME280;66331;46.796;9.824;2023-02-03T11:14:36;85499.72;;;-1.14;42.10
36514;BME280;66331;46.796;9.824;2023-02-03T11:17:06;85493.39;;;-0.63;41.19
36514;BME280;66331;46.796;9.824;2023-02-03T11:19:36;85484.63;;;-0.78;42.31
36514;BME280;66331;46.796;9.824;2023-02-03T11:22:03;85481.15;;;-0.88;41.85
36514;BME280;66331;46.796;9.824;2023-02-03T11:24:32;85477.84;;;-0.59;42.14
36514;BME280;66331;46.796;9.824;2023-02-03T11:27:05;85471.75;;;-0.19;40.88
36514;BME280;66331;46.796;9.824;2023-02-03T11:29:34;85473.99;;;0.07;41.75
36514;BME280;66331;46.796;9.824;2023-02-03T11:32:05;85467.71;;;-0.00;41.94
36514;BME280;66331;46.796;9.824;2023-02-03T11:34:39;85461.08;;;-1.40;45.99
36514;BME280;66331;46.796;9.824;2023-02-03T11:37:31;85458.44;;;-0.32;42.91
36514;BME280;66331;46.796;9.824;2023-02-03T11:40:28;85460.93;;;0.33;41.18
36514;BME280;66331;46.796;9.824;2023-02-03T11:43:02;85459.48;;;-0.01;41.58
36514;BME280;66331;46.796;9.824;2023-02-03T11:45:36;85457.90;;;0.32;41.85
36514;BME280;66331;46.796;9.824;2023-02-03T11:48:25;85451.25;;;0.16;41.98
36514;BME280;66331;46.796;9.824;2023-02-03T11:50:59;85445.32;;;1.03;41.25
36514;BME280;66331;46.796;9.824;2023-02-03T11:53:38;85443.39;;;0.64;40.06
36514;BME280;66331;46.796;9.824;2023-02-03T11:56:19;85438.75;;;0.21;41.39
36514;BME280;66331;46.796;9.824;2023-02-03T11:59:02;85435.56;;;0.68;41.30
36514;BME280;66331;46.796;9.824;2023-02-03T12:01:51;85428.71;;;0.65;41.58
36514;BME280;66331;46.796;9.824;2023-02-03T12:04:41;85426.61;;;0.67;41.12
36514;BME280;66331;46.796;9.824;2023-02-03T12:07:31;85430.54;;;1.41;40.72
36514;BME280;66331;46.796;9.824;2023-02-03T12:10:08;85425.91;;;1.37;40.25
36514;BME280;66331;46.796;9.824;2023-02-03T12:12:49;85429.26;;;1.24;39.98
36514;BME280;66331;46.796;9.824;2023-02-03T12:15:27;85437.09;;;0.93;40.42
36514;BME280;66331;46.796;9.824;2023-02-03T12:18:41;85441.75;;;1.05;39.58
36514;BME280;66331;46.796;9.824;2023-02-03T12:21:29;85437.60;;;1.33;40.67
36514;BME280;66331;46.796;9.824;2023-02-03T12:24:03;85435.41;;;1.76;40.80
36514;BME280;66331;46.796;9.824;2023-02-03T12:26:40;85419.36;;;1.82;39.79
36514;BME280;66331;46.796;9.824;2023-02-03T12:29:13;85411.29;;;2.98;37.85
36514;BME280;66331;46.796;9.824;2023-02-03T12:31:45;85416.03;;;2.48;38.51
36514;BME280;66331;46.796;9.824;2023-02-03T12:34:20;85418.83;;;2.16;38.01
36514;BME280;66331;46.796;9.824;2023-02-03T12:36:54;85410.17;;;2.64;37.82
36514;BME280;66331;46.796;9.824;2023-02-03T12:39:26;85414.49;;;2.56;37.26
36514;BME280;66331;46.796;9.824;2023-02-03T12:42:00;85410.74;;;2.90;37.35
36514;BME280;66331;46.796;9.824;2023-02-03T12:44:31;85410.03;;;2.16;38.19
36514;BME280;66331;46.796;9.824;2023-02-03T12:47:05;85407.70;;;2.67;37.01
36514;BME280;66331;46.796;9.824;2023-02-03T12:49:42;85398.24;;;3.10;37.01
36514;BME280;66331;46.796;9.824;2023-02-03T12:52:19;85397.29;;;2.86;36.23
36514;BME280;66331;46.796;9.824;2023-02-03T12:54:51;85393.75;;;2.87;36.31
36514;BME280;66331;46.796;9.824;2023-02-03T12:57:27;85397.23;;;2.96;36.51
36514;BME280;66331;46.796;9.824;2023-02-03T13:00:20;85391.10;;;3.01;37.26
36514;BME280;66331;46.796;9.824;2023-02-03T13:03:02;85394.95;;;4.07;36.93
36514;BME280;66331;46.796;9.824;2023-02-03T13:05:38;85391.92;;;3.61;37.82
36514;BME280;66331;46.796;9.824;2023-02-03T13:08:12;85390.37;;;3.11;38.38
36514;BME280;66331;46.796;9.824;2023-02-03T13:10:46;85384.22;;;3.36;37.36
36514;BME280;66331;46.796;9.824;2023-02-03T13:13:23;85390.62;;;3.32;36.43
36514;BME280;66331;46.796;9.824;2023-02-03T13:15:55;85392.21;;;3.06;36.12
36514;BME280;66331;46.796;9.824;2023-02-03T13:18:27;85392.25;;;3.10;36.64
36514;BME280;66331;46.796;9.824;2023-02-03T13:20:57;85395.85;;;2.76;37.47
36514;BME280;66331;46.796;9.824;2023-02-03T13:23:25;85390.70;;;3.28;37.07